Time;durP1;ratioP1;P1;durP2;ratioP2;P2;SDS_P1;SDS_P2;PMS_P1;PMS_P2;Temp;Humidity;BMP_temperature;BMP_pressure;BME280_temperature;BME280_humidity;BME280_pressure;Samples;Min_cycle;Max_cycle;Signal;HPM_P1;HPM_P2
2022/01/14 00:00:36;;;;;;;66.47;23.30;;;5.20;99.90;;;;;;5052350;28;20079;-78
2022/01/14 00:03:02;;;;;;;73.85;23.05;;;5.30;99.90;;;;;;5051910;28;20021;-74
2022/01/14 00:05:28;;;;;;;106.68;24.60;;;5.30;99.90;;;;;;5051832;28;20029;-74
2022/01/14 00:07:53;;;;;;;86.25;23.90;;;5.30;99.90;;;;;;5051703;28;20103;-74
2022/01/14 00:10:19;;;;;;;115.70;22.42;;;5.30;99.90;;;;;;5052905;28;20044;-75
2022/01/14 00:12:52;;;;;;;83.80;22.45;;;5.20;99.90;;;;;;5052669;28;20025;-73
2022/01/14 00:15:24;;;;;;;;;;;5.20;99.90;;;;;;5052620;28;20533;-75
2022/01/14 00:17:51;;;;;;;115.90;22.60;;;5.20;99.90;;;;;;5052780;28;19915;-75
2022/01/14 00:20:19;;;;;;;82.63;22.98;;;5.20;99.90;;;;;;5051593;28;20047;-75
2022/01/14 00:22:44;;;;;;;77.15;21.80;;;5.20;99.90;;;;;;5052423;28;20052;-74
2022/01/14 00:33:09;;;;;;;69.20;22.75;;;5.20;99.90;;;;;;5047274;28;20032;-75
2022/01/14 00:35:37;;;;;;;51.50;22.67;;;5.20;99.90;;;;;;5052271;28;20033;-75
2022/01/14 00:38:03;;;;;;;76.15;23.42;;;5.20;99.90;;;;;;5040360;28;20381;-74
2022/01/14 00:40:30;;;;;;;66.43;23.73;;;5.20;99.90;;;;;;5053735;28;20044;-74
2022/01/14 00:42:57;;;;;;;67.10;23.52;;;5.20;99.90;;;;;;5067137;28;20045;-74
2022/01/14 00:45:22;;;;;;;74.65;23.63;;;5.20;99.90;;;;;;5051746;28;20068;-74
2022/01/14 00:47:48;;;;;;;71.88;23.25;;;5.20;99.90;;;;;;5052139;28;20029;-74
2022/01/14 00:50:15;;;;;;;70.20;24.75;;;5.20;99.90;;;;;;5052317;28;20056;-74
2022/01/14 00:52:42;;;;;;;117.82;25.20;;;5.20;99.90;;;;;;5053051;28;20380;-73
2022/01/14 00:55:13;;;;;;;84.57;24.77;;;5.30;99.90;;;;;;5052754;28;20533;-74
2022/01/14 01:00:29;;;;;;;60.42;25.35;;;5.30;99.90;;;;;;5052462;28;20174;-73
2022/01/14 01:02:55;;;;;;;71.10;24.15;;;5.40;99.90;;;;;;5052964;28;20033;-74
2022/01/14 01:05:22;;;;;;;60.03;27.42;;;5.30;99.90;;;;;;5052484;28;20035;-74
2022/01/14 01:07:57;;;;;;;72.95;27.15;;;5.30;99.90;;;;;;5052272;28;20029;-74
2022/01/14 01:10:24;;;;;;;55.13;27.10;;;5.30;99.90;;;;;;5052630;28;20067;-73
2022/01/14 01:12:57;;;;;;;68.85;27.05;;;5.30;99.90;;;;;;5052484;28;20100;-74
2022/01/14 01:15:23;;;;;;;72.95;25.27;;;5.30;99.90;;;;;;5052340;28;20487;-74
2022/01/14 01:17:49;;;;;;;64.35;25.80;;;5.40;99.90;;;;;;5052727;28;20029;-74
2022/01/14 01:20:18;;;;;;;56.80;25.80;;;5.40;99.90;;;;;;5052154;28;20037;-74
2022/01/14 01:22:47;;;;;;;56.40;26.10;;;5.40;99.90;;;;;;5052406;28;20063;-74
2022/01/14 01:25:15;;;;;;;64.03;25.67;;;5.40;99.90;;;;;;5052539;28;20057;-74
2022/01/14 01:27:43;;;;;;;56.90;26.48;;;5.40;99.90;;;;;;5052482;28;20033;-74
2022/01/14 01:32:58;;;;;;;67.43;27.27;;;5.40;99.90;;;;;;5038184;28;20070;-75
2022/01/14 01:35:24;;;;;;;55.50;25.92;;;5.40;99.90;;;;;;5034928;28;20058;-74
2022/01/14 01:37:50;;;;;;;59.70;25.48;;;5.50;99.90;;;;;;5019219;28;20085;-74
2022/01/14 01:40:19;;;;;;;55.85;27.33;;;5.50;99.90;;;;;;5032279;28;20045;-74
2022/01/14 01:42:45;;;;;;;48.35;25.35;;;5.40;99.90;;;;;;5031870;28;20053;-74
2022/01/14 01:45:15;;;;;;;59.58;25.85;;;5.50;99.90;;;;;;5031770;28;20041;-73
2022/01/14 01:47:41;;;;;;;52.38;26.80;;;5.50;99.90;;;;;;5028240;28;20532;-73
2022/01/14 01:50:15;;;;;;;58.97;25.23;;;5.50;99.90;;;;;;5055150;28;20049;-73
2022/01/14 01:52:41;;;;;;;57.20;25.00;;;5.50;99.90;;;;;;5050667;28;20040;-73
2022/01/14 01:55:08;;;;;;;64.03;26.77;;;5.40;99.90;;;;;;5055621;28;20473;-73
2022/01/14 01:57:34;;;;;;;51.33;25.73;;;5.40;99.90;;;;;;5055734;28;20419;-73
2022/01/14 02:00:00;;;;;;;70.22;27.42;;;5.40;99.90;;;;;;5054945;28;20045;-73
2022/01/14 02:02:27;;;;;;;76.63;26.05;;;5.40;99.90;;;;;;5056136;28;20071;-73
2022/01/14 02:04:53;;;;;;;69.97;27.50;;;5.40;99.90;;;;;;5055739;28;20407;-73
2022/01/14 02:07:18;;;;;;;70.75;27.15;;;5.40;99.90;;;;;;5055242;28;20044;-74
2022/01/14 02:09:44;;;;;;;58.20;26.13;;;5.30;99.90;;;;;;5055396;28;20098;-73
2022/01/14 02:12:11;;;;;;;55.83;25.48;;;5.30;99.90;;;;;;5055562;28;20033;-73
2022/01/14 02:22:46;;;;;;;59.58;28.58;;;5.30;99.90;;;;;;5049904;28;20052;-73
2022/01/14 02:25:14;;;;;;;63.55;25.98;;;5.30;99.90;;;;;;5054510;28;20473;-74
2022/01/14 02:27:40;;;;;;;71.30;26.83;;;5.20;99.90;;;;;;5055167;28;20392;-74
2022/01/14 02:30:07;;;;;;;130.40;28.67;;;5.20;99.90;;;;;;5054454;28;20033;-73
2022/01/14 02:32:33;;;;;;;69.90;26.70;;;5.20;99.90;;;;;;5055199;28;20049;-74
2022/01/14 02:34:58;;;;;;;60.08;23.42;;;5.10;99.90;;;;;;5056891;28;20047;-74
2022/01/14 02:37:24;;;;;;;60.85;25.92;;;5.10;99.90;;;;;;5059644;28;20036;-76
2022/01/14 02:39:50;;;;;;;65.40;25.13;;;5.00;99.90;;;;;;5058294;28;20032;-75
2022/01/14 02:42:15;;;;;;;57.63;24.77;;;5.00;99.90;;;;;;5054777;28;20060;-75
2022/01/14 02:44:41;;;;;;;77.30;27.17;;;5.00;99.90;;;;;;5054758;28;20100;-75
2022/01/14 02:47:07;;;;;;;55.65;25.00;;;5.00;99.90;;;;;;5054798;28;20057;-75
2022/01/14 02:49:35;;;;;;;93.70;26.08;;;5.00;99.90;;;;;;5054204;28;20033;-75
2022/01/14 02:52:04;;;;;;;74.20;25.08;;;5.00;99.90;;;;;;5054815;28;20033;-75
2022/01/14 02:54:39;;;;;;;73.25;24.65;;;5.10;99.90;;;;;;5054717;28;20108;-75
2022/01/14 02:57:07;;;;;;;62.80;25.42;;;5.10;99.90;;;;;;5049849;28;20055;-75
2022/01/14 02:59:37;;;;;;;71.13;25.58;;;5.10;99.90;;;;;;5030790;28;20072;-74
2022/01/14 03:02:06;;;;;;;59.03;24.83;;;5.10;99.90;;;;;;5053283;28;20040;-75
2022/01/14 03:04:36;;;;;;;95.07;25.02;;;5.10;99.90;;;;;;5054734;28;20029;-75
2022/01/14 03:07:03;;;;;;;76.05;22.95;;;5.10;99.90;;;;;;5054592;28;20029;-75
2022/01/14 03:09:29;;;;;;;77.50;24.15;;;5.10;99.90;;;;;;5054246;28;20061;-75
2022/01/14 03:11:55;;;;;;;64.95;24.10;;;5.10;99.90;;;;;;5054126;28;20125;-75
2022/01/14 03:14:25;;;;;;;51.63;23.33;;;5.10;99.90;;;;;;5054119;28;20033;-75
2022/01/14 03:16:53;;;;;;;88.70;23.52;;;5.10;99.90;;;;;;5054183;28;20029;-75
2022/01/14 03:19:23;;;;;;;48.15;23.70;;;5.20;99.90;;;;;;5053835;28;20078;-75
2022/01/14 03:21:51;;;;;;;68.07;23.40;;;5.20;99.90;;;;;;5054320;28;20054;-75
2022/01/14 03:25:37;;;;;;;53.58;22.73;;;5.20;99.90;;;;;;5054287;28;20032;-75
2022/01/14 03:27:05;;;;;;;52.75;22.15;;;5.20;99.90;;;;;;5053936;28;20025;-75
2022/01/14 03:29:31;;;;;;;63.22;24.77;;;5.10;99.90;;;;;;5053747;28;20037;-75
2022/01/14 03:31:57;;;;;;;68.88;24.60;;;5.20;99.90;;;;;;5053744;28;20025;-75
2022/01/14 03:34:23;;;;;;;55.38;23.70;;;5.20;99.90;;;;;;5053609;28;20116;-74
2022/01/14 03:36:48;;;;;;;54.42;23.60;;;5.20;99.90;;;;;;5057370;28;20035;-75
2022/01/14 03:39:15;;;;;;;58.10;23.20;;;5.20;99.90;;;;;;5054109;28;20040;-75
2022/01/14 03:41:40;;;;;;;46.75;23.08;;;5.20;99.90;;;;;;5053442;28;20021;-74
2022/01/14 03:44:06;;;;;;;44.53;23.05;;;5.20;99.90;;;;;;5053769;28;20035;-75
2022/01/14 03:46:32;;;;;;;63.45;23.73;;;5.20;99.90;;;;;;5053706;28;20075;-75
2022/01/14 03:48:57;;;;;;;50.25;23.35;;;5.30;99.90;;;;;;5053555;28;20119;-74
2022/01/14 03:51:24;;;;;;;124.20;24.38;;;5.30;99.90;;;;;;5044236;28;20086;-74
2022/01/14 03:53:50;;;;;;;55.90;23.45;;;5.30;99.90;;;;;;5053651;28;20071;-74
2022/01/14 03:56:16;;;;;;;87.82;25.58;;;5.40;99.90;;;;;;5052855;28;20423;-74
2022/01/14 03:58:42;;;;;;;58.80;24.77;;;5.40;99.90;;;;;;5053714;28;20021;-74
2022/01/14 04:01:10;;;;;;;64.45;24.33;;;5.40;99.90;;;;;;5053296;28;20056;-74
2022/01/14 04:03:36;;;;;;;77.50;26.83;;;5.40;99.90;;;;;;5053777;28;20093;-74
2022/01/14 04:06:03;;;;;;;73.00;25.42;;;5.40;99.90;;;;;;5053348;28;20120;-74
2022/01/14 04:08:29;;;;;;;47.03;24.10;;;5.30;99.90;;;;;;5053528;28;20112;-74
2022/01/14 04:10:56;;;;;;;53.95;24.58;;;5.30;99.90;;;;;;5053224;28;20134;-74
2022/01/14 04:13:34;;;;;;;76.03;26.30;;;5.20;99.90;;;;;;5053577;28;20044;-74
2022/01/14 04:16:00;;;;;;;56.58;26.00;;;5.20;99.90;;;;;;5053138;28;20033;-74
2022/01/14 04:18:26;;;;;;;65.03;27.17;;;5.20;99.90;;;;;;5053679;28;20043;-74
2022/01/14 04:20:52;;;;;;;94.00;25.73;;;5.10;99.90;;;;;;5053004;28;20025;-74
2022/01/14 04:23:21;;;;;;;51.30;26.55;;;5.10;99.90;;;;;;5053547;28;20037;-74
2022/01/14 04:25:56;;;;;;;128.40;25.30;;;5.10;99.90;;;;;;5052912;28;20087;-75
2022/01/14 04:28:24;;;;;;;107.47;26.08;;;5.20;99.90;;;;;;5052835;28;20075;-75
2022/01/14 04:30:56;;;;;;;115.95;26.90;;;5.20;99.90;;;;;;5052903;28;20373;-75
2022/01/14 04:33:28;;;;;;;121.00;26.77;;;5.20;99.90;;;;;;5059870;28;20473;-74
2022/01/14 04:36:00;;;;;;;81.05;26.45;;;5.20;99.90;;;;;;5064566;28;20112;-75
2022/01/14 04:38:28;;;;;;;71.95;25.85;;;5.20;99.90;;;;;;5042454;28;20029;-74
2022/01/14 04:40:55;;;;;;;89.25;25.77;;;5.20;99.90;;;;;;5052314;28;20112;-75
2022/01/14 04:43:21;;;;;;;77.35;26.25;;;5.20;99.90;;;;;;5052623;28;20437;-74
2022/01/14 04:46:02;;;;;;;69.65;25.02;;;5.20;99.90;;;;;;5052699;28;20376;-74
2022/01/14 04:48:29;;;;;;;63.20;24.85;;;5.20;99.90;;;;;;5053060;28;20067;-74
2022/01/14 04:50:55;;;;;;;80.13;26.52;;;5.20;99.90;;;;;;5050682;28;20021;-74
2022/01/14 04:53:22;;;;;;;88.93;27.95;;;5.10;99.90;;;;;;5052628;28;20067;-74
2022/01/14 04:55:49;;;;;;;85.47;27.30;;;5.10;99.90;;;;;;5052421;28;20029;-75
2022/01/14 04:58:14;;;;;;;89.20;27.13;;;5.10;99.90;;;;;;5052787;28;20029;-75
2022/01/14 05:00:40;;;;;;;87.13;26.40;;;5.10;99.90;;;;;;5051934;28;20076;-75
2022/01/14 05:03:07;;;;;;;71.18;25.63;;;5.10;99.90;;;;;;5052357;28;20029;-76
2022/01/14 05:05:36;;;;;;;80.30;25.80;;;5.10;99.90;;;;;;5052499;28;20040;-76
2022/01/14 05:08:01;;;;;;;95.47;26.52;;;5.10;99.90;;;;;;5056387;28;20025;-76
2022/01/14 05:12:53;;;;;;;70.32;24.83;;;5.10;99.90;;;;;;5056841;28;20044;-76
2022/01/14 05:15:19;;;;;;;66.70;25.00;;;5.10;99.90;;;;;;5056719;28;20036;-76
2022/01/14 05:17:46;;;;;;;96.85;25.67;;;5.20;99.90;;;;;;5056921;28;20037;-76
2022/01/14 05:20:13;;;;;;;159.05;25.25;;;5.20;99.90;;;;;;5056046;28;20112;-76
2022/01/14 05:22:39;;;;;;;79.80;25.08;;;5.20;99.90;;;;;;5036735;28;20040;-76
2022/01/14 05:25:07;;;;;;;71.25;25.35;;;5.20;99.90;;;;;;5019602;28;20034;-76
2022/01/14 05:27:33;;;;;;;131.27;26.15;;;5.30;99.90;;;;;;5031491;28;20044;-76
2022/01/14 05:29:59;;;;;;;80.70;25.55;;;5.30;99.90;;;;;;5027800;28;20124;-75
2022/01/14 05:32:26;;;;;;;55.30;24.77;;;5.30;99.90;;;;;;5043048;28;20056;-76
2022/01/14 05:34:51;;;;;;;47.53;24.08;;;5.40;99.90;;;;;;5027233;28;20480;-76
2022/01/14 05:37:17;;;;;;;47.38;23.45;;;5.40;99.90;;;;;;5031565;28;20041;-76
2022/01/14 05:39:44;;;;;;;86.72;24.38;;;5.50;99.90;;;;;;5034453;28;20057;-76
2022/01/14 05:42:10;;;;;;;78.55;24.17;;;5.60;99.90;;;;;;5051602;28;20094;-76
2022/01/14 05:44:35;;;;;;;68.18;24.02;;;5.50;99.90;;;;;;5056111;28;20472;-76
2022/01/14 05:47:01;;;;;;;56.00;24.25;;;5.50;99.90;;;;;;5055854;28;20025;-76
2022/01/14 05:49:28;;;;;;;52.53;22.65;;;5.50;99.90;;;;;;5055536;28;20041;-76
2022/01/14 05:51:54;;;;;;;70.32;22.27;;;5.50;99.90;;;;;;5055788;28;20029;-76
2022/01/14 05:54:21;;;;;;;59.45;23.23;;;5.50;99.90;;;;;;5056093;28;20029;-77
2022/01/14 05:56:47;;;;;;;56.70;23.48;;;5.50;99.90;;;;;;5056008;28;20021;-76
2022/01/14 05:59:13;;;;;;;95.75;23.35;;;5.50;99.90;;;;;;5055438;28;20025;-76
2022/01/14 06:01:40;;;;;;;55.05;22.60;;;5.50;99.90;;;;;;5054500;28;20037;-76
2022/01/14 06:04:06;;;;;;;152.65;23.30;;;5.60;99.90;;;;;;5054333;28;20036;-76
2022/01/14 06:06:33;;;;;;;264.45;25.98;;;5.60;99.90;;;;;;5052614;28;20455;-75
2022/01/14 06:08:59;;;;;;;63.10;22.95;;;5.60;99.90;;;;;;5036740;28;20051;-75
2022/01/14 06:11:24;;;;;;;141.10;23.10;;;5.60;99.90;;;;;;5054341;28;20032;-75
2022/01/14 06:13:50;;;;;;;78.57;22.35;;;5.60;99.90;;;;;;5053942;28;20028;-75
2022/01/14 06:16:16;;;;;;;44.95;21.55;;;5.60;99.90;;;;;;5054232;28;20376;-75
2022/01/14 06:18:42;;;;;;;80.72;23.65;;;5.60;99.90;;;;;;5053017;28;20025;-76
2022/01/14 06:21:07;;;;;;;83.40;22.85;;;5.60;99.90;;;;;;5053691;28;20423;-76
2022/01/14 06:23:34;;;;;;;85.93;21.70;;;5.60;99.90;;;;;;5054180;28;20024;-75
2022/01/14 06:26:00;;;;;;;58.03;21.65;;;5.70;99.90;;;;;;5032639;28;20021;-75
2022/01/14 06:28:25;;;;;;;56.75;21.20;;;5.60;99.90;;;;;;5053582;28;20388;-76
2022/01/14 06:30:51;;;;;;;98.85;21.15;;;5.60;99.90;;;;;;5057253;28;20029;-76
2022/01/14 06:33:17;;;;;;;102.82;21.08;;;5.50;99.90;;;;;;5054814;28;20044;-76
2022/01/14 06:35:42;;;;;;;89.72;21.13;;;5.50;99.90;;;;;;5053728;28;20021;-76
2022/01/14 06:38:08;;;;;;;95.65;21.90;;;5.50;99.90;;;;;;5054057;28;20373;-76
2022/01/14 06:40:34;;;;;;;52.63;21.50;;;5.40;99.90;;;;;;5053330;28;20041;-75
2022/01/14 06:43:01;;;;;;;73.82;22.30;;;5.30;99.90;;;;;;5053667;28;20021;-75
2022/01/14 06:45:27;;;;;;;74.65;22.42;;;5.30;99.90;;;;;;5053668;28;20554;-75
2022/01/14 06:47:53;;;;;;;81.97;21.67;;;5.20;99.90;;;;;;5053690;28;20024;-75
2022/01/14 06:50:21;;;;;;;209.70;24.77;;;5.30;99.90;;;;;;5053525;28;20362;-75
2022/01/14 06:52:47;;;;;;;111.85;22.60;;;5.30;99.90;;;;;;5053714;28;20406;-75
2022/01/14 06:55:13;;;;;;;61.10;21.67;;;5.30;99.90;;;;;;5053578;28;20129;-73
2022/01/14 06:57:38;;;;;;;95.32;23.65;;;5.30;99.90;;;;;;5053953;28;20021;-75
2022/01/14 07:00:15;;;;;;;123.70;24.27;;;5.30;99.90;;;;;;5015163;28;1111727;-74
2022/01/14 07:02:41;;;;;;;85.88;22.60;;;5.20;99.90;;;;;;5049529;28;20278;-74
2022/01/14 07:05:07;;;;;;;82.22;24.55;;;5.10;99.90;;;;;;5053909;28;20028;-74
2022/01/14 07:07:34;;;;;;;81.18;24.77;;;5.10;99.90;;;;;;5053647;28;20040;-73
2022/01/14 07:10:00;;;;;;;49.90;24.75;;;5.20;99.90;;;;;;5054172;28;20079;-73
2022/01/14 07:12:31;;;;;;;190.93;26.38;;;5.20;99.90;;;;;;5050625;28;20065;-74
2022/01/14 07:14:57;;;;;;;140.63;25.38;;;5.20;99.90;;;;;;5050744;28;20029;-74
2022/01/14 07:17:24;;;;;;;83.68;24.23;;;5.20;99.90;;;;;;5044250;28;20462;-73
2022/01/14 07:19:52;;;;;;;121.88;23.80;;;5.20;99.90;;;;;;5053277;28;20059;-74
2022/01/14 07:22:19;;;;;;;74.65;23.58;;;5.10;99.90;;;;;;5054088;28;20048;-74
2022/01/14 07:24:45;;;;;;;86.95;24.02;;;5.20;99.90;;;;;;5051120;28;20064;-74
2022/01/14 07:27:11;;;;;;;82.22;23.33;;;5.10;99.90;;;;;;5054223;28;20052;-74
2022/01/14 07:29:36;;;;;;;70.30;22.40;;;5.10;99.90;;;;;;5057620;28;20033;-74
2022/01/14 07:32:02;;;;;;;57.88;23.33;;;5.10;99.90;;;;;;5053884;28;20029;-73
2022/01/14 07:34:28;;;;;;;67.18;23.35;;;5.10;99.90;;;;;;5053319;28;20108;-77
2022/01/14 07:36:54;;;;;;;71.68;23.58;;;5.10;99.90;;;;;;5053817;28;20025;-74
2022/01/14 07:39:20;;;;;;;59.38;23.35;;;5.10;99.90;;;;;;5054105;28;20584;-74
2022/01/14 07:41:48;;;;;;;91.53;22.75;;;5.10;99.90;;;;;;5053802;28;20024;-76
2022/01/14 07:44:15;;;;;;;75.30;22.15;;;5.10;99.90;;;;;;5052736;28;20029;-75
2022/01/14 07:46:41;;;;;;;61.05;21.77;;;5.20;99.90;;;;;;5053218;28;20082;-77
2022/01/14 07:49:06;;;;;;;104.18;23.92;;;5.30;99.90;;;;;;5052771;28;20458;-78
2022/01/14 07:51:32;;;;;;;87.13;23.20;;;5.30;99.90;;;;;;5042298;28;20021;-74
2022/01/14 07:53:58;;;;;;;73.95;23.25;;;5.40;99.90;;;;;;5039062;28;20070;-74
2022/01/14 07:56:24;;;;;;;57.80;22.63;;;5.40;99.90;;;;;;5036671;28;20109;-74
2022/01/14 07:58:49;;;;;;;123.32;23.65;;;5.40;99.90;;;;;;5040982;28;20017;-80
2022/01/14 08:01:15;;;;;;;97.35;23.52;;;5.40;99.90;;;;;;5039859;28;20044;-77
2022/01/14 08:03:41;;;;;;;72.15;22.83;;;5.40;99.90;;;;;;5033738;28;20116;-73
2022/01/14 08:06:10;;;;;;;82.70;23.27;;;5.50;99.90;;;;;;5033804;28;20029;-76
2022/01/14 08:08:36;;;;;;;99.10;23.58;;;5.50;99.90;;;;;;5033696;28;20431;-76
2022/01/14 08:11:02;;;;;;;51.65;21.50;;;5.40;99.90;;;;;;5033538;28;20033;-76
2022/01/14 08:13:28;;;;;;;100.60;22.23;;;5.40;99.90;;;;;;5032101;28;20556;-74
2022/01/14 08:15:55;;;;;;;53.30;23.52;;;5.50;99.90;;;;;;5032086;28;20038;-74
2022/01/14 08:18:21;;;;;;;55.80;21.77;;;5.50;99.90;;;;;;5032464;28;20048;-74
2022/01/14 08:20:46;;;;;;;70.40;21.67;;;5.50;99.90;;;;;;5044076;28;20489;-72
2022/01/14 08:23:12;;;;;;;42.85;21.25;;;5.60;99.90;;;;;;5032174;28;20121;-73
2022/01/14 08:25:38;;;;;;;73.28;22.08;;;5.60;99.90;;;;;;5031864;28;20029;-73
2022/01/14 08:28:03;;;;;;;54.25;22.90;;;5.60;99.90;;;;;;5033472;28;20037;-73
2022/01/14 08:30:29;;;;;;;56.40;21.95;;;5.70;99.90;;;;;;5033206;28;20038;-73
2022/01/14 08:32:55;;;;;;;41.28;21.02;;;5.70;99.90;;;;;;5033224;28;20029;-72
2022/01/14 08:35:20;;;;;;;51.00;21.40;;;5.70;99.90;;;;;;5033498;28;20026;-73
2022/01/14 08:37:46;;;;;;;46.28;21.88;;;5.70;99.90;;;;;;5033125;28;20033;-74
2022/01/14 08:40:12;;;;;;;56.47;20.88;;;5.80;99.90;;;;;;5033270;28;20026;-74
2022/01/14 08:42:37;;;;;;;38.03;20.90;;;5.80;99.90;;;;;;5033127;28;20439;-74
2022/01/14 08:45:07;;;;;;;33.15;19.85;;;5.90;99.90;;;;;;5033242;28;20358;-73
2022/01/14 08:47:33;;;;;;;35.40;19.13;;;5.90;99.90;;;;;;5033570;28;20034;-74
2022/01/14 08:49:58;;;;;;;40.97;19.33;;;6.00;99.90;;;;;;5033433;28;20041;-72
2022/01/14 08:52:25;;;;;;;39.83;20.38;;;6.00;99.90;;;;;;5033128;28;20105;-72
2022/01/14 08:54:51;;;;;;;59.40;20.52;;;6.00;99.90;;;;;;5033127;28;20544;-72
2022/01/14 08:57:18;;;;;;;47.33;20.38;;;6.00;99.90;;;;;;5033225;28;20097;-72
2022/01/14 08:59:44;;;;;;;39.28;20.00;;;6.00;99.90;;;;;;5032759;28;20062;-72
2022/01/14 09:02:10;;;;;;;41.03;19.30;;;6.00;99.90;;;;;;5032657;28;20118;-71
2022/01/14 09:04:36;;;;;;;41.00;20.05;;;6.00;99.90;;;;;;5033350;28;20048;-71
2022/01/14 09:07:01;;;;;;;50.13;18.98;;;6.00;99.90;;;;;;5033099;28;20025;-72
2022/01/14 09:09:27;;;;;;;39.05;18.58;;;6.00;99.90;;;;;;5033262;28;20457;-72
2022/01/14 09:11:54;;;;;;;35.50;17.77;;;6.10;99.90;;;;;;5033298;28;20029;-71
2022/01/14 09:14:21;;;;;;;55.85;19.58;;;6.10;99.90;;;;;;5032991;28;20100;-71
2022/01/14 09:16:47;;;;;;;49.17;18.48;;;6.20;99.90;;;;;;5033307;28;20088;-72
2022/01/14 09:19:13;;;;;;;37.78;18.48;;;6.10;99.90;;;;;;5033256;28;20021;-72
2022/01/14 09:21:39;;;;;;;42.90;19.23;;;6.10;99.90;;;;;;5033122;28;20025;-72
2022/01/14 09:24:05;;;;;;;46.35;19.05;;;6.20;99.90;;;;;;5032672;28;20079;-72
2022/01/14 09:26:37;;;;;;;44.60;19.20;;;6.20;99.90;;;;;;5032828;28;20075;-73
2022/01/14 09:29:04;;;;;;;59.53;20.17;;;6.20;99.90;;;;;;5033090;28;20044;-72
2022/01/14 09:31:30;;;;;;;39.25;19.80;;;6.20;99.90;;;;;;5038134;28;20021;-72
2022/01/14 09:33:56;;;;;;;39.00;19.92;;;6.20;99.90;;;;;;5039535;28;20473;-74
2022/01/14 09:36:23;;;;;;;47.63;19.35;;;6.30;99.90;;;;;;5032481;28;20021;-75
2022/01/14 09:38:48;;;;;;;40.50;19.67;;;6.50;99.90;;;;;;5032597;28;20045;-73
2022/01/14 09:41:17;;;;;;;41.10;20.35;;;6.70;99.90;;;;;;5032487;28;20061;-74
2022/01/14 09:43:43;;;;;;;43.63;19.40;;;6.70;99.90;;;;;;5032966;28;20053;-74
2022/01/14 09:46:10;;;;;;;37.35;18.42;;;6.70;99.90;;;;;;5032396;28;20053;-73
2022/01/14 09:48:40;;;;;;;36.45;20.55;;;6.70;99.90;;;;;;5032923;28;20026;-73
2022/01/14 09:51:05;;;;;;;38.05;20.55;;;6.70;99.90;;;;;;5032702;28;20129;-73
2022/01/14 09:53:33;;;;;;;37.60;19.38;;;6.70;99.90;;;;;;5035275;28;20101;-73
2022/01/14 09:55:59;;;;;;;38.50;19.88;;;6.70;99.90;;;;;;5036292;28;20025;-73
2022/01/14 09:58:27;;;;;;;46.97;21.15;;;6.70;99.90;;;;;;5042195;28;20392;-73
2022/01/14 10:01:17;;;;;;;33.50;19.95;;;6.70;99.90;;;;;;5054834;28;20052;-74
2022/01/14 10:04:02;;;;;;;40.60;20.05;;;6.70;99.90;;;;;;5048836;28;20049;-73
2022/01/14 10:06:39;;;;;;;31.73;18.10;;;6.70;99.90;;;;;;5055139;28;20041;-74
2022/01/14 10:09:21;;;;;;;30.50;18.38;;;6.70;99.90;;;;;;5052133;28;20051;-74
2022/01/14 10:12:16;;;;;;;33.22;18.40;;;6.70;99.90;;;;;;5042808;28;20086;-74
2022/01/14 10:15:06;;;;;;;30.60;17.88;;;6.70;99.90;;;;;;5056094;28;20063;-73
2022/01/14 10:17:43;;;;;;;33.55;18.90;;;6.70;99.90;;;;;;5051310;28;20428;-74
2022/01/14 10:20:14;;;;;;;48.28;19.55;;;6.70;99.90;;;;;;5043924;28;20029;-74
2022/01/14 10:22:46;;;;;;;34.65;19.05;;;6.70;99.90;;;;;;5035792;28;20037;-74
2022/01/14 10:25:20;;;;;;;34.70;18.13;;;6.70;99.90;;;;;;5039046;28;20113;-74
2022/01/14 10:27:51;;;;;;;35.80;18.70;;;6.70;99.90;;;;;;5052005;28;20028;-74
2022/01/14 10:30:21;;;;;;;43.42;18.65;;;6.70;99.90;;;;;;5054035;28;20091;-74
2022/01/14 10:33:09;;;;;;;33.15;19.25;;;6.80;99.90;;;;;;5053976;28;20078;-74
2022/01/14 10:35:37;;;;;;;34.65;18.10;;;6.80;99.90;;;;;;5054493;28;20472;-74
2022/01/14 10:38:05;;;;;;;34.38;19.48;;;6.80;99.90;;;;;;5054206;28;20017;-74
2022/01/14 10:40:35;;;;;;;40.55;19.85;;;6.80;99.90;;;;;;5054205;28;20029;-74
2022/01/14 10:43:03;;;;;;;32.17;18.50;;;6.80;99.90;;;;;;5053799;28;20380;-74
2022/01/14 10:45:29;;;;;;;37.47;19.25;;;6.80;99.90;;;;;;5053902;28;20027;-74
2022/01/14 10:48:03;;;;;;;38.45;18.88;;;6.90;99.90;;;;;;5054101;28;20159;-74
2022/01/14 10:50:45;;;;;;;33.13;18.90;;;6.90;99.90;;;;;;5050891;28;20036;-74
2022/01/14 10:53:21;;;;;;;33.80;18.73;;;6.90;99.90;;;;;;5044341;28;20021;-74
2022/01/14 10:55:52;;;;;;;32.40;18.58;;;6.90;99.90;;;;;;5053915;28;20029;-74
2022/01/14 10:58:24;;;;;;;32.65;18.60;;;7.00;99.90;;;;;;5053468;28;20029;-73
2022/01/14 11:00:55;;;;;;;39.05;20.77;;;6.90;99.90;;;;;;5053670;28;20068;-74
2022/01/14 11:03:34;;;;;;;37.17;20.33;;;7.00;99.90;;;;;;5053537;28;20060;-74
2022/01/14 11:06:25;;;;;;;34.58;18.83;;;6.90;99.90;;;;;;5052388;28;20104;-74
2022/01/14 11:08:58;;;;;;;41.40;21.00;;;6.80;99.90;;;;;;5028415;28;20036;-77
2022/01/14 11:11:25;;;;;;;38.47;20.85;;;6.80;99.90;;;;;;5026312;28;20029;-75
2022/01/14 11:13:51;;;;;;;36.65;19.90;;;6.90;99.90;;;;;;5021726;28;20081;-74
2022/01/14 11:16:17;;;;;;;38.40;21.15;;;6.90;99.90;;;;;;5022712;28;20025;-74
2022/01/14 11:18:45;;;;;;;37.38;20.85;;;6.90;99.90;;;;;;5029043;28;20353;-73
2022/01/14 11:23:56;;;;;;;36.75;20.13;;;7.00;99.90;;;;;;5048888;28;20068;-77
2022/01/14 11:26:27;;;;;;;35.15;20.88;;;7.00;99.90;;;;;;5053109;28;20017;-74
2022/01/14 11:28:54;;;;;;;37.65;20.27;;;6.90;99.90;;;;;;5052430;28;20116;-75
2022/01/14 11:31:25;;;;;;;36.58;20.02;;;7.00;99.90;;;;;;5052984;28;20049;-76
2022/01/14 11:33:51;;;;;;;37.92;20.67;;;7.00;99.90;;;;;;5052987;28;20023;-74
2022/01/14 11:36:17;;;;;;;31.85;19.00;;;7.00;99.90;;;;;;5053550;28;20107;-75
2022/01/14 11:38:46;;;;;;;36.70;19.88;;;7.00;99.90;;;;;;5053137;28;20025;-75
2022/01/14 11:41:16;;;;;;;36.50;20.55;;;7.00;99.90;;;;;;5052885;28;20021;-80
2022/01/14 11:43:54;;;;;;;33.78;20.23;;;6.90;99.90;;;;;;5058322;28;20048;-76
2022/01/14 11:46:31;;;;;;;32.50;20.20;;;6.90;99.90;;;;;;5057410;28;20025;-76
2022/01/14 11:48:58;;;;;;;39.45;20.60;;;6.90;99.90;;;;;;5052679;28;20384;-73
2022/01/14 11:51:24;;;;;;;34.95;20.27;;;6.90;99.90;;;;;;5043923;28;20033;-73
2022/01/14 11:54:06;;;;;;;37.67;20.00;;;6.90;99.90;;;;;;5038704;28;20025;-73
2022/01/14 11:56:32;;;;;;;34.60;19.23;;;6.90;99.90;;;;;;5037834;28;20512;-74
2022/01/14 11:59:22;;;;;;;36.33;20.48;;;7.00;99.90;;;;;;5046667;28;20066;-75
2022/01/14 12:01:53;;;;;;;38.78;21.73;;;7.00;99.90;;;;;;5047056;28;20384;-75
2022/01/14 12:04:19;;;;;;;37.15;19.42;;;7.00;99.90;;;;;;5052873;28;20036;-77
2022/01/14 12:06:51;;;;;;;37.28;20.90;;;7.00;99.90;;;;;;5051009;28;20033;-74
2022/01/14 12:09:18;;;;;;;40.38;21.10;;;7.10;99.90;;;;;;5052328;28;20459;-74
2022/01/14 12:11:44;;;;;;;37.22;21.48;;;7.10;99.90;;;;;;5052932;28;20037;-75
2022/01/14 12:14:12;;;;;;;38.08;20.25;;;7.10;99.90;;;;;;5052409;28;20508;-76
2022/01/14 12:17:00;;;;;;;42.22;21.63;;;7.10;99.90;;;;;;5051731;28;20488;-76
2022/01/14 12:19:29;;;;;;;33.78;20.08;;;7.10;99.90;;;;;;5051403;28;20025;-74
2022/01/14 12:21:55;;;;;;;38.05;21.75;;;7.20;99.90;;;;;;5052474;28;20029;-73
2022/01/14 12:24:21;;;;;;;37.55;20.30;;;7.10;99.90;;;;;;5051073;28;20024;-74
2022/01/14 12:27:00;;;;;;;48.85;24.30;;;7.20;99.90;;;;;;5052228;28;20055;-74
2022/01/14 12:29:37;;;;;;;47.65;23.35;;;7.10;99.90;;;;;;5051943;28;20399;-73
2022/01/14 12:32:10;;;;;;;40.80;22.92;;;7.20;99.90;;;;;;5051443;28;20111;-75
2022/01/14 12:34:38;;;;;;;36.33;22.13;;;7.20;99.90;;;;;;5051295;28;20028;-76
2022/01/14 12:37:05;;;;;;;42.30;22.83;;;7.20;99.90;;;;;;5051274;28;20137;-75
2022/01/14 12:39:32;;;;;;;38.55;22.27;;;7.20;99.90;;;;;;5038601;28;20032;-76
2022/01/14 12:41:59;;;;;;;39.00;22.10;;;7.30;99.90;;;;;;5056982;28;20053;-73
2022/01/14 12:44:26;;;;;;;39.28;22.27;;;7.30;99.90;;;;;;5052866;28;20029;-74
2022/01/14 12:47:09;;;;;;;43.42;22.85;;;7.30;99.90;;;;;;5050183;28;20643;-77
2022/01/14 12:49:40;;;;;;;42.65;24.38;;;7.30;99.90;;;;;;5050083;28;20048;-77
2022/01/14 12:52:09;;;;;;;41.88;22.90;;;7.30;99.90;;;;;;5050377;28;20029;-77
2022/01/14 12:54:37;;;;;;;40.88;23.20;;;7.30;99.90;;;;;;5050481;28;20152;-78
2022/01/14 12:57:04;;;;;;;41.50;22.55;;;7.40;99.90;;;;;;5047539;28;20045;-77
2022/01/14 12:59:40;;;;;;;44.10;23.17;;;7.30;99.90;;;;;;5051004;28;20029;-78
2022/01/14 13:02:05;;;;;;;46.38;23.75;;;7.40;99.90;;;;;;5052151;28;20021;-77
2022/01/14 13:04:32;;;;;;;47.80;24.38;;;7.40;99.90;;;;;;5051598;28;20039;-77
2022/01/14 13:07:04;;;;;;;44.60;23.25;;;7.30;99.90;;;;;;5052391;28;20102;-78